Weather at Ignacio Agramonte International Airport

Public forecast

Using degrees Celsius for public forecast. Weather courtesy of forecast.io.

Current aviation weather report (METAR) for Ignacio Agramonte International Airport

Retrieved 2021/06/23 07:51 UTC (60 minutes ago):

MUCM 230751Z 36007KT 9000 SCT018 24/23 Q1018

Aviation forecast (TAF) for Ignacio Agramonte International Airport

Retrieved 2021/06/23 06:07 UTC (3 hours ago):

TAF MUCM 230500Z 2306/2406 VRB03KT 9000 SCT020 BECMG 2312/2315 07012KT TEMPO 2318/2324 4000 TSRA SCT018CB BKN020